createdAt,value
2023-05-04T00:00:17.133Z,100.00
2023-05-04T00:02:44.606Z,100.00
2023-05-04T00:05:12.632Z,100.00
2023-05-04T00:07:39.866Z,100.00
2023-05-04T00:10:08.891Z,100.00
2023-05-04T00:12:36.287Z,100.00
2023-05-04T00:15:04.577Z,100.00
2023-05-04T00:17:32.184Z,100.00
2023-05-04T00:19:59.824Z,100.00
2023-05-04T00:22:28.153Z,100.00
2023-05-04T00:24:55.409Z,100.00
2023-05-04T00:27:22.801Z,100.00
2023-05-04T00:29:50.183Z,100.00
2023-05-04T00:32:17.747Z,100.00
2023-05-04T00:34:45.136Z,100.00
2023-05-04T00:37:12.375Z,100.00
2023-05-04T00:39:41.955Z,100.00
2023-05-04T00:42:09.298Z,100.00
2023-05-04T00:44:36.915Z,100.00
2023-05-04T00:47:04.311Z,100.00
2023-05-04T00:49:31.743Z,100.00
2023-05-04T00:52:01.344Z,100.00
2023-05-04T00:54:29.830Z,100.00
2023-05-04T00:56:57.246Z,100.00
2023-05-04T00:59:24.539Z,100.00
2023-05-04T01:01:51.936Z,100.00
2023-05-04T01:04:19.863Z,100.00
2023-05-04T01:06:52.792Z,100.00
2023-05-04T01:09:43.412Z,100.00
2023-05-04T01:12:34.220Z,100.00
2023-05-04T01:15:03.078Z,100.00
2023-05-04T01:17:30.297Z,100.00
2023-05-04T01:19:57.580Z,100.00
2023-05-04T01:22:26.668Z,100.00
2023-05-04T01:24:55.533Z,100.00
2023-05-04T01:27:42.806Z,100.00
2023-05-04T01:30:25.834Z,100.00
2023-05-04T01:32:54.388Z,100.00
2023-05-04T01:35:22.281Z,100.00
2023-05-04T01:37:49.532Z,100.00
2023-05-04T01:40:18.513Z,100.00
2023-05-04T01:42:46.147Z,100.00
2023-05-04T01:45:13.494Z,100.00
2023-05-04T01:47:40.825Z,100.00
2023-05-04T01:50:08.812Z,100.00
2023-05-04T01:52:36.109Z,100.00
2023-05-04T01:55:03.529Z,100.00
2023-05-04T01:57:32.876Z,100.00
2023-05-04T02:00:00.152Z,100.00
2023-05-04T02:02:27.618Z,100.00
2023-05-04T02:04:54.990Z,100.00
2023-05-04T02:07:22.465Z,100.00
2023-05-04T02:09:49.673Z,100.00
2023-05-04T02:12:16.953Z,100.00
2023-05-04T02:14:44.159Z,100.00
2023-05-04T02:17:11.815Z,100.00
2023-05-04T02:19:39.539Z,100.00
2023-05-04T02:22:07.740Z,100.00
2023-05-04T02:24:35.984Z,100.00
2023-05-04T02:27:03.389Z,100.00
2023-05-04T02:29:30.716Z,100.00
2023-05-04T02:31:58.059Z,100.00
2023-05-04T02:34:25.840Z,100.00
2023-05-04T02:36:54.997Z,100.00
2023-05-04T02:39:22.279Z,100.00
2023-05-04T02:41:49.546Z,100.00
2023-05-04T02:44:16.756Z,100.00
2023-05-04T02:46:44.046Z,100.00
2023-05-04T02:49:11.492Z,100.00
2023-05-04T02:51:38.768Z,100.00
2023-05-04T02:54:06.821Z,100.00
2023-05-04T02:56:34.222Z,100.00
2023-05-04T02:59:04.812Z,100.00
2023-05-04T03:01:34.180Z,100.00
2023-05-04T03:04:02.361Z,100.00
2023-05-04T03:06:29.879Z,100.00
2023-05-04T03:08:59.161Z,100.00
2023-05-04T03:11:27.245Z,100.00
2023-05-04T03:13:54.636Z,100.00
2023-05-04T03:16:22.079Z,100.00
2023-05-04T03:18:51.120Z,100.00
2023-05-04T03:21:18.567Z,100.00
2023-05-04T03:23:46.137Z,100.00
2023-05-04T03:26:13.398Z,100.00
2023-05-04T03:28:41.034Z,100.00
2023-05-04T03:31:08.798Z,100.00
2023-05-04T03:33:36.309Z,100.00
2023-05-04T03:36:03.850Z,100.00
2023-05-04T03:38:31.818Z,100.00
2023-05-04T03:41:00.230Z,100.00
2023-05-04T03:43:28.246Z,100.00
2023-05-04T03:45:58.405Z,100.00
2023-05-04T03:48:25.685Z,100.00
2023-05-04T03:50:54.028Z,100.00
2023-05-04T03:53:21.387Z,100.00
2023-05-04T03:55:48.692Z,100.00
2023-05-04T03:58:15.990Z,100.00
2023-05-04T04:00:43.237Z,100.00
2023-05-04T04:03:15.348Z,100.00
2023-05-04T04:05:43.054Z,100.00
2023-05-04T04:08:10.374Z,100.00
2023-05-04T04:10:37.649Z,100.00
2023-05-04T04:13:05.085Z,100.00
2023-05-04T04:15:32.385Z,100.00
2023-05-04T04:18:01.210Z,100.00
2023-05-04T04:20:28.483Z,100.00
2023-05-04T04:22:55.656Z,100.00
2023-05-04T04:25:23.298Z,100.00
2023-05-04T04:27:51.296Z,100.00
2023-05-04T04:30:18.480Z,100.00
2023-05-04T04:32:47.292Z,100.00
2023-05-04T04:35:15.016Z,100.00
2023-05-04T04:37:42.408Z,100.00
2023-05-04T04:40:10.375Z,100.00
2023-05-04T04:42:37.694Z,100.00
2023-05-04T04:45:05.807Z,100.00
2023-05-04T04:47:33.129Z,100.00
2023-05-04T04:50:00.434Z,100.00
2023-05-04T04:52:27.928Z,100.00
2023-05-04T04:54:55.310Z,100.00
2023-05-04T04:57:22.748Z,100.00
2023-05-04T04:59:50.052Z,100.00
2023-05-04T05:02:17.566Z,100.00
2023-05-04T05:04:44.796Z,100.00
2023-05-04T05:07:12.317Z,100.00
2023-05-04T05:09:41.325Z,100.00
2023-05-04T05:12:08.535Z,100.00
2023-05-04T05:14:36.144Z,100.00
2023-05-04T05:17:08.420Z,100.00
2023-05-04T05:19:37.210Z,100.00
2023-05-04T05:22:05.045Z,100.00
2023-05-04T05:24:32.482Z,100.00
2023-05-04T05:27:00.704Z,100.00
2023-05-04T05:29:28.250Z,100.00
2023-05-04T05:31:55.704Z,100.00
2023-05-04T05:34:23.252Z,100.00
2023-05-04T05:36:50.535Z,100.00
2023-05-04T05:39:17.884Z,100.00
2023-05-04T05:41:45.314Z,100.00
2023-05-04T05:44:13.183Z,100.00
2023-05-04T05:46:40.682Z,100.00
2023-05-04T05:49:08.054Z,100.00
2023-05-04T05:51:35.348Z,100.00
2023-05-04T05:54:02.640Z,100.00
2023-05-04T05:56:29.992Z,100.00
2023-05-04T05:58:57.397Z,100.00
2023-05-04T06:01:24.749Z,100.00
2023-05-04T06:03:52.251Z,100.00
2023-05-04T06:06:19.931Z,100.00
2023-05-04T06:08:47.365Z,100.00
2023-05-04T06:11:14.993Z,100.00
2023-05-04T06:13:42.253Z,100.00
2023-05-04T06:16:09.570Z,100.00
2023-05-04T06:18:37.013Z,100.00
2023-05-04T06:21:04.805Z,100.00
2023-05-04T06:23:32.097Z,100.00
2023-05-04T06:26:00.686Z,100.00
2023-05-04T06:28:27.861Z,100.00
2023-05-04T06:30:55.155Z,100.00
2023-05-04T06:33:23.670Z,100.00
2023-05-04T06:35:52.421Z,100.00
2023-05-04T06:38:19.744Z,100.00
2023-05-04T06:40:47.370Z,100.00
2023-05-04T06:43:14.647Z,100.00
2023-05-04T06:45:41.990Z,100.00
2023-05-04T06:48:09.297Z,100.00
2023-05-04T06:50:36.638Z,100.00
2023-05-04T06:53:05.012Z,100.00
2023-05-04T06:55:32.288Z,100.00
2023-05-04T06:57:59.719Z,100.00
2023-05-04T07:00:27.665Z,100.00
2023-05-04T07:02:55.435Z,100.00
2023-05-04T07:05:24.370Z,100.00
2023-05-04T07:07:51.966Z,100.00
2023-05-04T07:10:19.632Z,100.00
2023-05-04T07:12:47.031Z,100.00
2023-05-04T07:15:14.443Z,100.00
2023-05-04T07:17:43.020Z,100.00
2023-05-04T07:20:11.417Z,100.00
2023-05-04T07:22:38.806Z,100.00
2023-05-04T07:25:06.657Z,100.00
2023-05-04T07:27:36.716Z,100.00
2023-05-04T07:30:06.838Z,100.00
2023-05-04T07:32:34.399Z,100.00
2023-05-04T07:35:01.676Z,100.00
2023-05-04T07:37:29.031Z,100.00
2023-05-04T07:39:56.382Z,100.00
2023-05-04T07:42:23.612Z,100.00
2023-05-04T07:44:52.187Z,100.00
2023-05-04T07:47:20.159Z,100.00
2023-05-04T07:49:47.542Z,100.00
2023-05-04T07:52:14.953Z,100.00
2023-05-04T07:54:42.359Z,100.00
2023-05-04T07:57:09.700Z,100.00
2023-05-04T07:59:36.996Z,100.00
2023-05-04T08:02:04.429Z,100.00
2023-05-04T08:04:31.983Z,100.00
2023-05-04T08:06:59.464Z,100.00
2023-05-04T08:09:26.921Z,100.00
2023-05-04T08:11:54.228Z,100.00
2023-05-04T08:14:22.007Z,100.00
2023-05-04T08:16:49.322Z,100.00
2023-05-04T08:19:16.650Z,100.00
2023-05-04T08:21:43.953Z,100.00
2023-05-04T08:24:11.449Z,100.00
2023-05-04T08:26:39.296Z,100.00
2023-05-04T08:29:08.933Z,100.00
2023-05-04T08:31:37.049Z,100.00
2023-05-04T08:34:04.763Z,100.00
2023-05-04T08:36:32.191Z,100.00
2023-05-04T08:39:01.087Z,100.00
2023-05-04T08:41:28.692Z,100.00
2023-05-04T08:43:56.317Z,100.00
2023-05-04T08:46:24.767Z,100.00
2023-05-04T08:48:52.131Z,100.00
2023-05-04T08:51:20.260Z,100.00
2023-05-04T08:53:50.382Z,100.00
2023-05-04T08:56:18.490Z,100.00
2023-05-04T08:58:50.728Z,100.00
2023-05-04T09:01:19.653Z,100.00
2023-05-04T09:03:48.926Z,100.00
2023-05-04T09:06:16.884Z,100.00
2023-05-04T09:08:44.535Z,100.00
2023-05-04T09:11:12.334Z,100.00
2023-05-04T09:13:42.865Z,100.00
2023-05-04T09:16:10.817Z,100.00
2023-05-04T09:18:59.079Z,100.00
2023-05-04T09:21:30.815Z,100.00
2023-05-04T09:23:58.496Z,100.00
2023-05-04T09:26:33.363Z,100.00
2023-05-04T09:29:14.798Z,100.00
2023-05-04T09:31:47.577Z,100.00
2023-05-04T09:34:17.095Z,100.00
2023-05-04T09:36:44.849Z,100.00
2023-05-04T09:39:12.885Z,100.00
2023-05-04T09:41:40.843Z,100.00
2023-05-04T09:44:22.469Z,100.00
2023-05-04T09:46:57.615Z,100.00
2023-05-04T09:49:37.951Z,100.00
2023-05-04T09:52:06.918Z,100.00
2023-05-04T09:54:36.302Z,100.00
2023-05-04T09:57:16.221Z,100.00
2023-05-04T09:59:43.632Z,100.00
2023-05-04T10:02:22.615Z,100.00
2023-05-04T10:04:52.203Z,100.00
2023-05-04T10:07:21.174Z,100.00
2023-05-04T10:09:49.254Z,100.00
2023-05-04T10:12:16.563Z,100.00
2023-05-04T10:14:47.012Z,100.00
2023-05-04T10:17:42.029Z,96.33
2023-05-04T10:20:43.896Z,96.67
2023-05-04T10:23:42.320Z,98.52
2023-05-04T10:26:42.048Z,95.43
2023-05-04T10:29:23.774Z,100.00
2023-05-04T10:31:53.534Z,98.44
2023-05-04T10:34:28.015Z,97.94
2023-05-04T10:36:56.438Z,96.51
2023-05-04T10:39:26.471Z,95.66
2023-05-04T10:42:05.528Z,94.37
2023-05-04T10:44:49.293Z,95.59
2023-05-04T10:47:33.684Z,93.74
2023-05-04T10:50:08.926Z,93.39
2023-05-04T10:52:53.933Z,92.77
2023-05-04T10:55:22.255Z,93.63
2023-05-04T10:57:51.300Z,94.26
2023-05-04T11:00:19.192Z,94.41
2023-05-04T11:02:47.848Z,94.45
2023-05-04T11:05:20.718Z,88.82
2023-05-04T11:07:53.510Z,92.40
2023-05-04T11:10:25.831Z,92.30
2023-05-04T11:12:55.414Z,91.08
2023-05-04T11:15:22.984Z,90.78
2023-05-04T11:17:53.109Z,91.94
2023-05-04T11:20:29.577Z,89.60
2023-05-04T11:22:57.037Z,88.90
2023-05-04T11:25:29.598Z,90.33
2023-05-04T11:27:59.171Z,88.93
2023-05-04T11:30:34.719Z,82.42
2023-05-04T11:33:04.993Z,87.84
2023-05-04T11:35:33.457Z,89.76
2023-05-04T11:38:01.130Z,88.55
2023-05-04T11:40:28.511Z,88.56
2023-05-04T11:42:57.760Z,88.14
2023-05-04T11:45:28.512Z,87.30
2023-05-04T11:47:59.626Z,88.00
2023-05-04T11:50:28.806Z,88.19
2023-05-04T11:53:14.366Z,85.68
2023-05-04T11:55:42.957Z,86.99
2023-05-04T11:58:11.692Z,87.90
2023-05-04T12:00:42.603Z,87.38
2023-05-04T12:03:15.278Z,84.60
2023-05-04T12:05:47.970Z,84.76
2023-05-04T12:08:35.578Z,82.29
2023-05-04T12:11:25.604Z,81.75
2023-05-04T12:14:04.342Z,75.79
2023-05-04T12:16:31.813Z,82.50
2023-05-04T12:19:04.866Z,82.10
2023-05-04T12:21:33.240Z,80.29
2023-05-04T12:24:01.315Z,80.15
2023-05-04T12:26:28.622Z,80.34
2023-05-04T12:28:56.696Z,81.36
2023-05-04T12:31:25.314Z,78.32
2023-05-04T12:33:53.201Z,79.66
2023-05-04T12:36:21.620Z,76.35
2023-05-04T12:38:48.858Z,76.65
2023-05-04T12:41:16.459Z,73.49
2023-05-04T12:43:44.017Z,71.93
2023-05-04T12:46:11.638Z,73.84
2023-05-04T12:48:39.128Z,73.53
2023-05-04T12:51:06.553Z,76.07
2023-05-04T12:53:34.305Z,72.34
2023-05-04T12:56:02.419Z,70.99
2023-05-04T12:58:30.689Z,72.55
2023-05-04T13:00:58.932Z,72.03
2023-05-04T13:03:26.433Z,72.01
2023-05-04T13:05:54.078Z,71.19
2023-05-04T13:08:21.385Z,71.37
2023-05-04T13:10:48.642Z,72.47
2023-05-04T13:13:17.871Z,71.60
2023-05-04T13:15:45.599Z,70.64
2023-05-04T13:18:13.201Z,70.19
2023-05-04T13:20:41.347Z,69.63
2023-05-04T13:23:08.689Z,70.24
2023-05-04T13:25:36.310Z,69.81
2023-05-04T13:28:03.910Z,70.68
2023-05-04T13:30:31.191Z,71.27
2023-05-04T13:32:58.520Z,70.10
2023-05-04T13:35:26.006Z,69.92
2023-05-04T13:37:53.702Z,69.23
2023-05-04T13:40:21.093Z,71.63
2023-05-04T13:42:48.444Z,68.88
2023-05-04T13:45:16.515Z,68.50
2023-05-04T13:47:44.270Z,66.07
2023-05-04T13:50:12.124Z,65.96
2023-05-04T13:52:40.569Z,66.00
2023-05-04T13:55:09.231Z,64.80
2023-05-04T13:57:36.656Z,62.94
2023-05-04T14:00:08.395Z,63.16
2023-05-04T14:02:38.784Z,61.86
2023-05-04T14:05:07.814Z,62.25
2023-05-04T14:07:36.055Z,63.26
2023-05-04T14:10:03.899Z,63.31
2023-05-04T14:12:31.459Z,62.33
2023-05-04T14:14:59.155Z,62.93
2023-05-04T14:17:26.840Z,63.06
2023-05-04T14:19:54.242Z,63.65
2023-05-04T14:22:21.586Z,63.88
2023-05-04T14:24:50.189Z,62.93
2023-05-04T14:27:18.634Z,63.66
2023-05-04T14:29:47.876Z,63.21
2023-05-04T14:32:15.795Z,63.77
2023-05-04T14:34:43.268Z,64.56
2023-05-04T14:37:10.545Z,65.48
2023-05-04T14:39:39.584Z,65.51
2023-05-04T14:42:08.636Z,63.71
2023-05-04T14:44:38.722Z,61.96
2023-05-04T14:47:07.690Z,62.46
2023-05-04T14:49:37.555Z,63.47
2023-05-04T14:52:05.112Z,63.13
2023-05-04T14:54:32.674Z,62.67
2023-05-04T14:57:00.326Z,60.59
2023-05-04T14:59:27.834Z,60.58
2023-05-04T15:01:55.863Z,61.36
2023-05-04T15:04:23.248Z,60.32
2023-05-04T15:06:52.413Z,61.68
2023-05-04T15:09:19.715Z,62.25
2023-05-04T15:11:47.179Z,62.49
2023-05-04T15:14:15.169Z,63.04
2023-05-04T15:16:42.528Z,62.13
2023-05-04T15:19:10.005Z,61.42
2023-05-04T15:21:37.226Z,61.73
2023-05-04T15:24:04.983Z,62.09
2023-05-04T15:26:34.445Z,62.38
2023-05-04T15:29:01.842Z,61.24
2023-05-04T15:31:32.430Z,62.48
2023-05-04T15:34:01.227Z,60.13
2023-05-04T15:36:29.325Z,63.17
2023-05-04T15:38:56.990Z,63.84
2023-05-04T15:41:24.282Z,62.99
2023-05-04T15:43:51.621Z,64.54
2023-05-04T15:46:24.994Z,65.03
2023-05-04T15:48:52.286Z,65.08
2023-05-04T15:51:19.681Z,65.91
2023-05-04T15:53:47.256Z,66.30
2023-05-04T15:56:15.628Z,67.01
2023-05-04T15:58:45.030Z,66.16
2023-05-04T16:01:14.819Z,67.03
2023-05-04T16:03:44.053Z,67.04
2023-05-04T16:06:12.725Z,65.95
2023-05-04T16:08:40.618Z,67.14
2023-05-04T16:11:08.254Z,67.49
2023-05-04T16:13:35.860Z,66.84
2023-05-04T16:16:03.862Z,66.97
2023-05-04T16:18:31.150Z,65.99
2023-05-04T16:20:58.382Z,65.95
2023-05-04T16:23:26.843Z,66.45
2023-05-04T16:25:54.262Z,66.00
2023-05-04T16:28:23.346Z,65.77
2023-05-04T16:30:50.693Z,65.72
2023-05-04T16:33:19.685Z,66.41
2023-05-04T16:35:47.110Z,67.67
2023-05-04T16:38:14.439Z,68.42
2023-05-04T16:40:42.601Z,68.60
2023-05-04T16:43:10.629Z,68.41
2023-05-04T16:45:40.468Z,69.47
2023-05-04T16:48:08.035Z,70.22
2023-05-04T16:50:35.468Z,71.11
2023-05-04T16:53:03.109Z,71.46
2023-05-04T16:55:30.915Z,71.36
2023-05-04T16:57:58.806Z,71.33
2023-05-04T17:00:26.436Z,71.47
2023-05-04T17:02:53.964Z,71.82
2023-05-04T17:05:21.351Z,72.55
2023-05-04T17:07:48.796Z,73.21
2023-05-04T17:10:18.256Z,72.12
2023-05-04T17:12:45.602Z,71.83
2023-05-04T17:15:12.912Z,71.72
2023-05-04T17:17:41.475Z,71.86
2023-05-04T17:20:14.895Z,72.35
2023-05-04T17:22:43.086Z,72.49
2023-05-04T17:25:12.433Z,72.93
2023-05-04T17:27:40.494Z,73.08
2023-05-04T17:30:14.163Z,73.27
2023-05-04T17:32:41.777Z,73.52
2023-05-04T17:35:23.474Z,73.06
2023-05-04T17:37:59.193Z,73.60
2023-05-04T17:40:28.525Z,73.77
2023-05-04T17:42:56.544Z,73.83
2023-05-04T17:45:24.076Z,74.28
2023-05-04T17:47:52.297Z,73.96
2023-05-04T17:50:20.452Z,73.85
2023-05-04T17:52:52.811Z,74.55
2023-05-04T17:55:21.152Z,74.46
2023-05-04T17:57:48.739Z,74.61
2023-05-04T18:00:20.137Z,74.50
2023-05-04T18:02:47.710Z,76.26
2023-05-04T18:05:15.855Z,75.99
2023-05-04T18:07:44.527Z,76.19
2023-05-04T18:10:12.124Z,76.69
2023-05-04T18:12:40.495Z,76.27
2023-05-04T18:15:09.132Z,76.17
2023-05-04T18:17:40.772Z,76.85
2023-05-04T18:20:09.608Z,77.73
2023-05-04T18:22:37.394Z,76.94
2023-05-04T18:25:05.390Z,77.44
2023-05-04T18:27:33.822Z,77.81
2023-05-04T18:30:02.258Z,78.10
2023-05-04T18:32:29.893Z,77.85
2023-05-04T18:35:01.439Z,78.46
2023-05-04T18:37:31.622Z,79.23
2023-05-04T18:39:59.520Z,79.16
2023-05-04T18:42:27.014Z,79.99
2023-05-04T18:44:55.027Z,79.46
2023-05-04T18:47:22.475Z,80.02
2023-05-04T18:49:54.716Z,79.91
2023-05-04T18:52:22.361Z,80.89
2023-05-04T18:54:49.807Z,80.48
2023-05-04T18:57:17.861Z,80.68
2023-05-04T18:59:45.701Z,81.33
2023-05-04T19:02:13.073Z,81.54
2023-05-04T19:04:40.652Z,82.27
2023-05-04T19:07:09.961Z,82.76
2023-05-04T19:09:37.766Z,82.54
2023-05-04T19:12:05.404Z,82.92
2023-05-04T19:14:33.063Z,83.45
2023-05-04T19:17:01.183Z,83.75
2023-05-04T19:19:28.746Z,84.20
2023-05-04T19:21:56.058Z,85.03
2023-05-04T19:24:23.573Z,85.10
2023-05-04T19:26:50.895Z,85.64
2023-05-04T19:29:18.354Z,86.43
2023-05-04T19:31:45.861Z,86.01
2023-05-04T19:34:14.102Z,87.05
2023-05-04T19:36:42.875Z,87.90
2023-05-04T19:39:10.739Z,89.59
2023-05-04T19:41:38.266Z,91.37
2023-05-04T19:44:10.130Z,92.71
2023-05-04T19:46:37.833Z,94.60
2023-05-04T19:49:05.408Z,95.15
2023-05-04T19:51:33.074Z,96.15
2023-05-04T19:54:00.272Z,97.67
2023-05-04T19:56:27.729Z,98.01
2023-05-04T19:58:54.973Z,98.46
2023-05-04T20:01:23.225Z,99.34
2023-05-04T20:03:50.649Z,100.00
2023-05-04T20:06:18.112Z,100.00
2023-05-04T20:08:45.507Z,100.00
2023-05-04T20:11:13.252Z,100.00
2023-05-04T20:13:40.748Z,100.00
2023-05-04T20:16:08.638Z,100.00
2023-05-04T20:18:36.229Z,100.00
2023-05-04T20:21:03.679Z,100.00
2023-05-04T20:23:30.913Z,100.00
2023-05-04T20:25:58.533Z,100.00
2023-05-04T20:28:25.935Z,100.00
2023-05-04T20:30:54.499Z,100.00
2023-05-04T20:33:21.856Z,100.00
2023-05-04T20:35:49.068Z,100.00
2023-05-04T20:38:16.546Z,100.00
2023-05-04T20:40:43.990Z,100.00
2023-05-04T20:43:11.616Z,100.00
2023-05-04T20:45:39.294Z,100.00
2023-05-04T20:48:06.991Z,100.00
2023-05-04T20:50:34.462Z,100.00
2023-05-04T20:53:02.324Z,100.00
2023-05-04T20:55:29.967Z,100.00
2023-05-04T20:57:57.877Z,100.00
2023-05-04T21:00:25.511Z,100.00
2023-05-04T21:02:53.481Z,100.00
2023-05-04T21:05:20.854Z,100.00
2023-05-04T21:07:48.194Z,100.00
2023-05-04T21:10:17.367Z,100.00
2023-05-04T21:12:44.712Z,100.00
2023-05-04T21:15:13.078Z,100.00
2023-05-04T21:17:40.812Z,100.00
2023-05-04T21:20:09.588Z,100.00
2023-05-04T21:22:37.171Z,100.00
2023-05-04T21:25:04.847Z,100.00
2023-05-04T21:27:32.087Z,100.00
2023-05-04T21:29:59.391Z,100.00
2023-05-04T21:32:27.962Z,100.00
2023-05-04T21:34:55.501Z,100.00
2023-05-04T21:37:22.791Z,100.00
2023-05-04T21:39:56.847Z,100.00
2023-05-04T21:42:24.192Z,100.00
2023-05-04T21:44:57.394Z,100.00
2023-05-04T21:47:24.809Z,100.00
2023-05-04T21:49:53.448Z,100.00
2023-05-04T21:52:21.671Z,100.00
2023-05-04T21:54:49.232Z,100.00
2023-05-04T21:57:16.593Z,100.00
2023-05-04T21:59:43.933Z,100.00
2023-05-04T22:02:11.148Z,100.00
2023-05-04T22:04:42.883Z,100.00
2023-05-04T22:07:11.148Z,100.00
2023-05-04T22:09:39.000Z,100.00
2023-05-04T22:12:07.550Z,100.00
2023-05-04T22:14:34.851Z,100.00
2023-05-04T22:17:02.553Z,100.00
2023-05-04T22:19:29.992Z,100.00
2023-05-04T22:21:57.506Z,100.00
2023-05-04T22:24:28.538Z,100.00
2023-05-04T22:26:55.988Z,100.00
2023-05-04T22:29:23.394Z,100.00
2023-05-04T22:31:50.713Z,100.00
2023-05-04T22:34:18.140Z,100.00
2023-05-04T22:36:45.327Z,100.00
2023-05-04T22:39:13.263Z,100.00
2023-05-04T22:41:40.810Z,100.00
2023-05-04T22:44:08.747Z,100.00
2023-05-04T22:46:36.079Z,100.00
2023-05-04T22:49:04.749Z,100.00
2023-05-04T22:51:32.548Z,100.00
2023-05-04T22:54:00.127Z,100.00
2023-05-04T22:56:28.982Z,100.00
2023-05-04T22:58:56.829Z,100.00
2023-05-04T23:01:24.390Z,100.00
2023-05-04T23:03:52.257Z,100.00
2023-05-04T23:06:21.826Z,100.00
2023-05-04T23:08:49.345Z,100.00
2023-05-04T23:11:20.945Z,100.00
2023-05-04T23:13:48.301Z,100.00
2023-05-04T23:16:15.689Z,100.00
2023-05-04T23:18:43.198Z,100.00
2023-05-04T23:21:10.461Z,100.00
2023-05-04T23:23:38.378Z,100.00
2023-05-04T23:26:05.797Z,100.00
2023-05-04T23:28:33.201Z,100.00
2023-05-04T23:31:00.503Z,100.00
2023-05-04T23:33:28.189Z,100.00
2023-05-04T23:35:56.066Z,100.00
2023-05-04T23:38:23.829Z,100.00
2023-05-04T23:40:51.942Z,100.00
2023-05-04T23:43:19.459Z,100.00
2023-05-04T23:45:46.824Z,100.00
2023-05-04T23:48:14.650Z,100.00
2023-05-04T23:50:54.188Z,100.00
2023-05-04T23:53:21.551Z,100.00
2023-05-04T23:55:58.305Z,100.00
2023-05-04T23:58:26.292Z,100.00
